createdAt,value
2023-05-16T00:01:43.462Z,20.94
2023-05-16T00:04:12.058Z,21.12
2023-05-16T00:06:40.518Z,21.10
2023-05-16T00:09:08.832Z,20.94
2023-05-16T00:11:37.052Z,21.11
2023-05-16T00:14:05.529Z,20.91
2023-05-16T00:16:33.867Z,20.81
2023-05-16T00:19:03.304Z,20.96
2023-05-16T00:21:32.119Z,20.98
2023-05-16T00:24:00.288Z,20.86
2023-05-16T00:26:28.591Z,20.76
2023-05-16T00:28:56.641Z,20.84
2023-05-16T00:31:25.344Z,20.80
2023-05-16T00:33:53.409Z,20.64
2023-05-16T00:36:23.809Z,20.62
2023-05-16T00:38:52.245Z,20.58
2023-05-16T00:41:21.309Z,20.58
2023-05-16T00:43:49.315Z,20.51
2023-05-16T00:46:17.777Z,20.38
2023-05-16T00:48:45.802Z,20.48
2023-05-16T00:51:14.240Z,20.56
2023-05-16T00:53:42.739Z,20.25
2023-05-16T00:56:11.344Z,20.45
2023-05-16T00:58:39.391Z,20.42
2023-05-16T01:01:08.241Z,20.32
2023-05-16T01:03:37.725Z,20.29
2023-05-16T01:06:07.799Z,20.65
2023-05-16T01:08:35.801Z,20.49
2023-05-16T01:11:34.878Z,20.36
2023-05-16T01:14:43.894Z,20.39
2023-05-16T01:17:12.495Z,20.37
2023-05-16T01:19:46.498Z,20.40
2023-05-16T01:22:37.819Z,20.34
2023-05-16T01:25:33.174Z,20.26
2023-05-16T01:28:03.145Z,20.16
2023-05-16T01:30:39.204Z,20.09
2023-05-16T01:33:08.485Z,20.35
2023-05-16T01:35:42.875Z,20.45
2023-05-16T01:38:26.886Z,20.57
2023-05-16T01:41:16.430Z,20.40
2023-05-16T01:43:49.944Z,20.33
2023-05-16T01:46:26.551Z,20.41
2023-05-16T01:49:07.556Z,20.56
2023-05-16T01:51:39.651Z,20.44
2023-05-16T01:54:12.353Z,20.47
2023-05-16T01:56:44.645Z,20.42
2023-05-16T01:59:13.493Z,20.43
2023-05-16T02:01:41.502Z,20.47
2023-05-16T02:04:10.083Z,20.55
2023-05-16T02:06:38.056Z,20.85
2023-05-16T02:09:06.298Z,20.48
2023-05-16T02:11:34.475Z,20.52
2023-05-16T02:14:02.747Z,20.56
2023-05-16T02:16:31.771Z,20.44
2023-05-16T02:19:00.296Z,20.60
2023-05-16T02:21:28.403Z,20.58
2023-05-16T02:23:56.664Z,20.34
2023-05-16T02:26:24.583Z,20.39
2023-05-16T02:28:52.972Z,20.31
2023-05-16T02:31:32.134Z,20.52
2023-05-16T02:34:01.768Z,20.45
2023-05-16T02:36:29.906Z,20.58
2023-05-16T02:38:58.163Z,20.55
2023-05-16T02:41:26.990Z,20.57
2023-05-16T02:43:55.556Z,20.64
2023-05-16T02:46:35.077Z,20.84
2023-05-16T02:49:05.923Z,20.61
2023-05-16T02:51:33.836Z,20.87
2023-05-16T02:54:02.194Z,21.00
2023-05-16T02:56:30.560Z,21.20
2023-05-16T02:59:00.569Z,21.00
2023-05-16T03:01:28.504Z,21.14
2023-05-16T03:03:57.475Z,20.89
2023-05-16T03:06:25.595Z,21.02
2023-05-16T03:08:53.935Z,21.17
2023-05-16T03:11:23.035Z,21.27
2023-05-16T03:13:51.613Z,21.14
2023-05-16T03:16:19.564Z,21.07
2023-05-16T03:18:48.432Z,20.94
2023-05-16T03:21:16.568Z,21.11
2023-05-16T03:23:46.436Z,21.18
2023-05-16T03:26:14.396Z,20.97
2023-05-16T03:28:42.849Z,21.07
2023-05-16T03:31:11.198Z,21.15
2023-05-16T03:33:39.516Z,21.21
2023-05-16T03:36:07.681Z,21.16
2023-05-16T03:38:36.406Z,20.95
2023-05-16T03:41:04.319Z,21.01
2023-05-16T03:43:33.223Z,20.83
2023-05-16T03:46:04.451Z,20.82
2023-05-16T03:48:32.835Z,20.88
2023-05-16T03:51:00.726Z,20.88
2023-05-16T03:53:28.862Z,20.93
2023-05-16T03:55:56.754Z,20.94
2023-05-16T03:58:25.053Z,20.87
2023-05-16T04:00:52.936Z,20.93
2023-05-16T04:03:21.290Z,20.86
2023-05-16T04:05:49.319Z,20.85
2023-05-16T04:08:17.764Z,20.74
2023-05-16T04:10:45.753Z,20.58
2023-05-16T04:13:15.394Z,20.88
2023-05-16T04:15:43.884Z,20.71
2023-05-16T04:18:13.739Z,20.64
2023-05-16T04:20:44.835Z,20.61
2023-05-16T04:23:13.242Z,20.55
2023-05-16T04:25:41.525Z,20.67
2023-05-16T04:28:09.924Z,20.94
2023-05-16T04:30:38.551Z,20.96
2023-05-16T04:33:07.447Z,20.73
2023-05-16T04:35:35.548Z,20.31
2023-05-16T04:38:05.006Z,20.30
2023-05-16T04:40:33.344Z,20.46
2023-05-16T04:43:01.718Z,20.42
2023-05-16T04:45:29.805Z,20.43
2023-05-16T04:47:58.710Z,20.10
2023-05-16T04:50:26.808Z,20.30
2023-05-16T04:52:56.392Z,20.05
2023-05-16T04:55:25.014Z,19.78
2023-05-16T04:57:53.414Z,19.96
2023-05-16T05:00:21.558Z,19.99
2023-05-16T05:02:49.827Z,19.92
2023-05-16T05:05:18.037Z,19.85
2023-05-16T05:07:46.794Z,19.77
2023-05-16T05:10:14.823Z,19.98
2023-05-16T05:12:43.095Z,19.95
2023-05-16T05:15:11.103Z,19.91
2023-05-16T05:17:39.461Z,19.89
2023-05-16T05:20:08.820Z,19.93
2023-05-16T05:22:37.186Z,19.68
2023-05-16T05:25:06.355Z,19.51
2023-05-16T05:27:34.699Z,19.70
2023-05-16T05:30:03.447Z,19.53
2023-05-16T05:32:32.298Z,19.71
2023-05-16T05:35:00.325Z,19.38
2023-05-16T05:37:29.127Z,19.27
2023-05-16T05:39:57.145Z,19.31
2023-05-16T05:42:25.673Z,19.19
2023-05-16T05:44:53.726Z,19.20
2023-05-16T05:47:22.296Z,18.73
2023-05-16T05:49:51.405Z,18.66
2023-05-16T05:52:19.594Z,18.84
2023-05-16T05:54:48.694Z,18.50
2023-05-16T05:57:17.060Z,18.26
2023-05-16T05:59:45.024Z,18.14
2023-05-16T06:02:14.481Z,18.37
2023-05-16T06:04:43.016Z,18.74
2023-05-16T06:07:11.375Z,18.70
2023-05-16T06:09:39.432Z,18.86
2023-05-16T06:12:08.024Z,18.82
2023-05-16T06:14:36.178Z,18.56
2023-05-16T06:17:04.670Z,18.88
2023-05-16T06:19:32.658Z,18.99
2023-05-16T06:22:01.049Z,19.02
2023-05-16T06:24:30.173Z,19.10
2023-05-16T06:26:58.418Z,19.20
2023-05-16T06:29:26.356Z,19.20
2023-05-16T06:31:54.738Z,19.07
2023-05-16T06:34:28.611Z,19.15
2023-05-16T06:36:57.090Z,19.13
2023-05-16T06:39:25.142Z,19.19
2023-05-16T06:41:56.184Z,19.23
2023-05-16T06:44:24.788Z,19.28
2023-05-16T06:46:53.310Z,19.36
2023-05-16T06:49:21.517Z,19.24
2023-05-16T06:51:50.090Z,19.21
2023-05-16T06:54:18.023Z,18.87
2023-05-16T06:56:46.384Z,19.24
2023-05-16T06:59:14.389Z,18.95
2023-05-16T07:01:43.066Z,19.06
2023-05-16T07:04:11.217Z,19.36
2023-05-16T07:06:39.629Z,19.35
2023-05-16T07:09:07.634Z,19.32
2023-05-16T07:11:36.179Z,19.44
2023-05-16T07:14:04.472Z,19.71
2023-05-16T07:16:33.282Z,19.76
2023-05-16T07:19:01.635Z,19.85
2023-05-16T07:21:30.541Z,20.21
2023-05-16T07:23:58.595Z,20.15
2023-05-16T07:26:27.002Z,20.23
2023-05-16T07:28:55.549Z,20.21
2023-05-16T07:31:24.529Z,20.20
2023-05-16T07:33:54.088Z,20.25
2023-05-16T07:36:22.556Z,20.12
2023-05-16T07:38:50.755Z,20.18
2023-05-16T07:41:19.065Z,20.16
2023-05-16T07:43:47.039Z,20.22
2023-05-16T07:46:15.415Z,20.28
2023-05-16T07:48:43.985Z,19.97
2023-05-16T07:51:12.431Z,20.08
2023-05-16T07:53:40.553Z,20.02
2023-05-16T07:56:09.590Z,20.03
2023-05-16T07:58:37.642Z,19.90
2023-05-16T08:01:06.222Z,20.01
2023-05-16T08:03:35.950Z,19.87
2023-05-16T08:06:04.908Z,19.81
2023-05-16T08:08:35.092Z,19.72
2023-05-16T08:11:03.664Z,19.83
2023-05-16T08:13:32.082Z,19.67
2023-05-16T08:16:00.486Z,19.53
2023-05-16T08:18:28.503Z,19.69
2023-05-16T08:20:56.804Z,19.70
2023-05-16T08:23:24.804Z,19.69
2023-05-16T08:25:54.988Z,19.73
2023-05-16T08:28:23.127Z,19.72
2023-05-16T08:30:51.718Z,19.68
2023-05-16T08:33:19.802Z,19.74
2023-05-16T08:35:49.694Z,19.74
2023-05-16T08:38:17.776Z,19.70
2023-05-16T08:40:46.252Z,19.74
2023-05-16T08:43:14.684Z,19.42
2023-05-16T08:45:43.178Z,19.15
2023-05-16T08:48:12.272Z,19.21
2023-05-16T08:50:43.070Z,19.10
2023-05-16T08:53:12.681Z,19.08
2023-05-16T08:55:43.055Z,19.09
2023-05-16T08:58:11.339Z,19.05
2023-05-16T09:00:41.510Z,18.96
2023-05-16T09:03:09.973Z,19.02
2023-05-16T09:05:38.802Z,19.04
2023-05-16T09:08:06.859Z,18.89
2023-05-16T09:10:35.161Z,18.57
2023-05-16T09:13:03.135Z,18.77
2023-05-16T09:15:33.829Z,18.73
2023-05-16T09:18:03.494Z,18.53
2023-05-16T09:20:31.972Z,18.62
2023-05-16T09:23:00.866Z,19.10
2023-05-16T09:25:32.414Z,19.42
2023-05-16T09:28:02.725Z,19.23
2023-05-16T09:30:37.628Z,19.29
2023-05-16T09:33:08.040Z,19.39
2023-05-16T09:35:44.973Z,19.57
2023-05-16T09:38:16.975Z,19.29
2023-05-16T09:40:46.751Z,19.78
2023-05-16T09:43:17.829Z,19.58
2023-05-16T09:45:48.524Z,19.77
2023-05-16T09:48:18.590Z,19.66
2023-05-16T09:50:51.694Z,19.49
2023-05-16T09:53:32.639Z,19.40
2023-05-16T09:56:07.200Z,18.76
2023-05-16T09:58:37.494Z,19.41
2023-05-16T10:01:07.475Z,19.77
2023-05-16T10:03:37.802Z,19.89
2023-05-16T10:06:07.439Z,20.24
2023-05-16T10:08:37.126Z,20.37
2023-05-16T10:11:06.974Z,20.88
2023-05-16T10:13:36.988Z,21.15
2023-05-16T10:16:12.129Z,21.62
2023-05-16T10:18:42.498Z,21.44
2023-05-16T10:21:16.821Z,21.31
2023-05-16T10:23:49.197Z,21.55
2023-05-16T10:26:18.106Z,21.72
2023-05-16T10:28:46.640Z,22.10
2023-05-16T10:31:16.513Z,22.33
2023-05-16T10:33:46.324Z,22.52
2023-05-16T10:36:16.968Z,22.78
2023-05-16T10:38:46.798Z,22.62
2023-05-16T10:41:15.923Z,22.83
2023-05-16T10:43:53.298Z,22.68
2023-05-16T10:46:24.391Z,22.34
2023-05-16T10:48:54.692Z,22.45
2023-05-16T10:51:24.405Z,22.46
2023-05-16T10:53:53.807Z,22.36
2023-05-16T10:56:27.611Z,22.27
2023-05-16T10:58:57.096Z,22.19
2023-05-16T11:01:36.125Z,22.20
2023-05-16T11:04:08.531Z,22.27
2023-05-16T11:06:43.396Z,21.92
2023-05-16T11:09:14.353Z,22.07
2023-05-16T11:11:50.258Z,22.10
2023-05-16T11:14:33.683Z,22.03
2023-05-16T11:17:13.633Z,22.00
2023-05-16T11:22:12.412Z,22.29
2023-05-16T11:25:03.212Z,22.29
2023-05-16T11:27:33.776Z,22.44
2023-05-16T11:30:13.169Z,22.33
2023-05-16T11:32:46.824Z,22.14
2023-05-16T11:35:17.306Z,22.26
2023-05-16T11:37:47.429Z,22.43
2023-05-16T11:40:17.563Z,22.59
2023-05-16T11:42:51.678Z,22.44
2023-05-16T11:45:24.607Z,22.16
2023-05-16T11:47:53.215Z,22.26
2023-05-16T11:50:24.068Z,22.14
2023-05-16T11:52:57.794Z,21.76
2023-05-16T11:55:41.063Z,22.11
2023-05-16T11:58:12.653Z,22.18
2023-05-16T12:00:49.030Z,22.28
2023-05-16T12:03:19.594Z,22.31
2023-05-16T12:05:53.450Z,22.24
2023-05-16T12:08:22.877Z,22.32
2023-05-16T12:10:52.650Z,22.37
2023-05-16T12:13:24.367Z,22.47
2023-05-16T12:15:53.144Z,22.62
2023-05-16T12:18:22.337Z,22.89
2023-05-16T12:20:51.343Z,22.73
2023-05-16T12:23:19.811Z,22.58
2023-05-16T12:25:49.571Z,22.82
2023-05-16T12:28:18.085Z,22.87
2023-05-16T12:30:48.259Z,22.51
2023-05-16T12:33:17.641Z,22.63
2023-05-16T12:35:47.821Z,22.51
2023-05-16T12:38:20.613Z,22.79
2023-05-16T12:40:48.847Z,22.63
2023-05-16T12:43:20.957Z,23.07
2023-05-16T12:45:55.748Z,23.29
2023-05-16T12:48:30.821Z,23.30
2023-05-16T12:51:11.912Z,23.30
2023-05-16T12:54:05.819Z,23.34
2023-05-16T12:56:42.456Z,23.48
2023-05-16T12:59:12.576Z,23.51
2023-05-16T13:01:42.486Z,23.74
2023-05-16T13:04:15.790Z,23.78
2023-05-16T13:06:56.655Z,23.87
2023-05-16T13:09:31.152Z,23.80
2023-05-16T13:12:00.875Z,24.20
2023-05-16T13:14:31.354Z,24.25
2023-05-16T13:16:59.380Z,24.07
2023-05-16T13:19:27.813Z,23.96
2023-05-16T13:21:56.398Z,23.92
2023-05-16T13:24:24.763Z,23.88
2023-05-16T13:26:52.911Z,23.82
2023-05-16T13:29:21.265Z,23.85
2023-05-16T13:31:49.411Z,23.85
2023-05-16T13:34:17.717Z,23.73
2023-05-16T13:36:53.736Z,23.73
2023-05-16T13:39:23.279Z,23.54
2023-05-16T13:41:51.885Z,23.33
2023-05-16T13:44:20.399Z,23.53
2023-05-16T13:46:48.925Z,23.74
2023-05-16T13:49:17.320Z,23.62
2023-05-16T13:51:45.366Z,23.71
2023-05-16T13:54:13.850Z,23.66
2023-05-16T13:56:42.323Z,23.55
2023-05-16T13:59:15.069Z,23.53
2023-05-16T14:01:46.543Z,23.57
2023-05-16T14:04:15.232Z,23.63
2023-05-16T14:06:43.654Z,23.61
2023-05-16T14:09:13.475Z,23.60
2023-05-16T14:11:41.480Z,23.73
2023-05-16T14:14:09.771Z,24.05
2023-05-16T14:16:37.778Z,23.88
2023-05-16T14:19:06.804Z,23.89
2023-05-16T14:21:34.802Z,24.18
2023-05-16T14:24:03.088Z,23.98
2023-05-16T14:26:32.588Z,23.96
2023-05-16T14:29:03.689Z,24.12
2023-05-16T14:31:32.020Z,23.95
2023-05-16T14:34:00.488Z,24.23
2023-05-16T14:36:28.428Z,24.12
2023-05-16T14:38:56.764Z,23.91
2023-05-16T14:41:24.736Z,24.04
2023-05-16T14:43:53.044Z,24.10
2023-05-16T14:46:21.114Z,24.22
2023-05-16T14:48:49.881Z,24.39
2023-05-16T14:51:18.122Z,24.42
2023-05-16T14:53:47.546Z,24.42
2023-05-16T14:56:16.215Z,24.32
2023-05-16T14:58:45.020Z,24.42
2023-05-16T15:01:13.123Z,24.32
2023-05-16T15:06:12.824Z,23.81
2023-05-16T15:08:41.941Z,23.76
2023-05-16T15:11:09.948Z,23.43
2023-05-16T15:13:39.311Z,23.66
2023-05-16T15:16:07.999Z,23.36
2023-05-16T15:18:36.765Z,23.50
2023-05-16T15:21:04.804Z,23.56
2023-05-16T15:23:33.424Z,23.46
2023-05-16T15:26:01.531Z,23.45
2023-05-16T15:28:30.221Z,23.57
2023-05-16T15:30:58.261Z,23.63
2023-05-16T15:33:26.526Z,23.58
2023-05-16T15:35:54.598Z,23.67
2023-05-16T15:38:22.960Z,23.63
2023-05-16T15:40:58.071Z,23.69
2023-05-16T15:43:34.411Z,23.72
2023-05-16T15:46:02.457Z,23.57
2023-05-16T15:48:30.897Z,23.78
2023-05-16T15:50:58.922Z,23.64
2023-05-16T15:53:29.616Z,23.57
2023-05-16T15:55:57.914Z,23.40
2023-05-16T15:58:26.423Z,23.10
2023-05-16T16:00:55.506Z,23.18
2023-05-16T16:03:24.044Z,23.28
2023-05-16T16:05:52.600Z,23.29
2023-05-16T16:08:21.458Z,23.13
2023-05-16T16:10:49.729Z,23.35
2023-05-16T16:13:18.004Z,22.93
2023-05-16T16:15:46.115Z,22.79
2023-05-16T16:18:15.265Z,22.78
2023-05-16T16:20:43.513Z,22.66
2023-05-16T16:23:11.966Z,22.61
2023-05-16T16:25:40.083Z,22.72
2023-05-16T16:28:08.777Z,22.78
2023-05-16T16:30:36.767Z,22.98
2023-05-16T16:33:05.173Z,23.01
2023-05-16T16:35:34.040Z,22.81
2023-05-16T16:38:07.071Z,22.89
2023-05-16T16:40:36.059Z,22.59
2023-05-16T16:43:06.588Z,22.43
2023-05-16T16:45:34.942Z,22.23
2023-05-16T16:48:03.561Z,22.18
2023-05-16T16:50:32.746Z,22.01
2023-05-16T16:53:04.659Z,21.80
2023-05-16T16:55:32.797Z,21.61
2023-05-16T16:58:02.148Z,21.65
2023-05-16T17:00:30.278Z,21.50
2023-05-16T17:02:58.985Z,21.49
2023-05-16T17:05:27.468Z,21.72
2023-05-16T17:07:55.970Z,21.37
2023-05-16T17:10:24.056Z,21.34
2023-05-16T17:12:52.430Z,21.17
2023-05-16T17:15:21.158Z,21.09
2023-05-16T17:17:49.683Z,20.97
2023-05-16T17:20:17.800Z,21.03
2023-05-16T17:22:48.958Z,21.07
2023-05-16T17:25:17.053Z,21.04
2023-05-16T17:27:45.568Z,21.07
2023-05-16T17:30:13.803Z,20.67
2023-05-16T17:32:42.378Z,20.57
2023-05-16T17:35:10.816Z,20.70
2023-05-16T17:37:39.546Z,20.72
2023-05-16T17:40:10.525Z,20.69
2023-05-16T17:42:39.212Z,20.71
2023-05-16T17:45:08.285Z,20.84
2023-05-16T17:47:36.801Z,20.52
2023-05-16T17:50:06.595Z,20.64
2023-05-16T17:52:38.120Z,20.91
2023-05-16T17:55:07.576Z,20.76
2023-05-16T17:57:36.594Z,20.67
2023-05-16T18:00:06.086Z,20.66
2023-05-16T18:02:36.700Z,20.71
2023-05-16T18:05:07.058Z,20.45
2023-05-16T18:07:35.606Z,20.53
2023-05-16T18:10:04.450Z,20.23
2023-05-16T18:12:33.193Z,20.73
2023-05-16T18:15:01.296Z,20.95
2023-05-16T18:17:30.099Z,20.90
2023-05-16T18:19:58.881Z,20.27
2023-05-16T18:22:28.490Z,20.09
2023-05-16T18:24:56.731Z,20.03
2023-05-16T18:27:25.111Z,19.85
2023-05-16T18:29:53.242Z,19.80
2023-05-16T18:32:21.762Z,20.04
2023-05-16T18:34:50.537Z,20.08
2023-05-16T18:37:18.980Z,19.91
2023-05-16T18:39:49.148Z,20.08
2023-05-16T18:42:17.986Z,20.38
2023-05-16T18:44:46.325Z,19.64
2023-05-16T18:47:16.627Z,19.91
2023-05-16T18:49:44.878Z,19.67
2023-05-16T18:52:13.343Z,19.63
2023-05-16T18:54:41.234Z,19.44
2023-05-16T18:57:09.669Z,19.24
2023-05-16T18:59:37.788Z,19.21
2023-05-16T19:02:06.361Z,19.37
2023-05-16T19:04:34.708Z,19.27
2023-05-16T19:07:04.803Z,18.64
2023-05-16T19:09:33.888Z,18.77
2023-05-16T19:12:02.273Z,18.94
2023-05-16T19:14:30.349Z,18.70
2023-05-16T19:16:58.761Z,18.69
2023-05-16T19:19:26.926Z,18.88
2023-05-16T19:21:56.033Z,18.82
2023-05-16T19:24:24.199Z,19.08
2023-05-16T19:26:52.529Z,19.14
2023-05-16T19:29:22.649Z,19.16
2023-05-16T19:31:51.094Z,18.82
2023-05-16T19:34:21.417Z,18.75
2023-05-16T19:36:50.827Z,18.68
2023-05-16T19:39:18.879Z,19.00
2023-05-16T19:41:51.640Z,18.89
2023-05-16T19:44:20.423Z,18.87
2023-05-16T19:46:48.784Z,18.68
2023-05-16T19:49:18.910Z,18.68
2023-05-16T19:51:48.712Z,18.91
2023-05-16T19:54:16.839Z,18.74
2023-05-16T19:56:45.221Z,18.42
2023-05-16T19:59:13.293Z,18.64
2023-05-16T20:04:14.794Z,18.67
2023-05-16T20:06:43.243Z,18.66
2023-05-16T20:09:11.555Z,19.03
2023-05-16T20:11:40.273Z,18.97
2023-05-16T20:14:08.200Z,18.93
2023-05-16T20:16:36.692Z,18.82
2023-05-16T20:19:04.732Z,18.82
2023-05-16T20:21:33.062Z,18.93
2023-05-16T20:24:01.341Z,18.79
2023-05-16T20:26:29.640Z,18.79
2023-05-16T20:28:57.737Z,18.75
2023-05-16T20:31:26.427Z,18.71
2023-05-16T20:33:54.610Z,18.61
2023-05-16T20:36:23.450Z,18.12
2023-05-16T20:38:51.582Z,18.20
2023-05-16T20:41:19.848Z,18.02
2023-05-16T20:43:47.853Z,18.55
2023-05-16T20:46:16.280Z,18.62
2023-05-16T20:48:44.390Z,17.96
2023-05-16T20:51:12.828Z,18.33
2023-05-16T20:53:40.805Z,18.09
2023-05-16T20:56:09.122Z,18.13
2023-05-16T20:58:41.320Z,18.23
2023-05-16T21:01:09.716Z,18.47
2023-05-16T21:03:37.699Z,18.54
2023-05-16T21:06:07.106Z,18.54
2023-05-16T21:08:35.072Z,18.47
2023-05-16T21:11:03.666Z,18.39
2023-05-16T21:13:31.703Z,18.58
2023-05-16T21:16:00.362Z,18.32
2023-05-16T21:18:28.398Z,18.68
2023-05-16T21:20:56.994Z,18.43
2023-05-16T21:23:24.986Z,18.59
2023-05-16T21:25:53.325Z,18.66
2023-05-16T21:28:21.296Z,18.67
2023-05-16T21:30:49.349Z,18.60
2023-05-16T21:33:17.713Z,18.79
2023-05-16T21:35:45.818Z,18.59
2023-05-16T21:38:14.212Z,18.56
2023-05-16T21:40:42.225Z,18.60
2023-05-16T21:43:10.656Z,18.59
2023-05-16T21:45:40.557Z,18.51
2023-05-16T21:48:09.303Z,18.44
2023-05-16T21:50:37.411Z,18.51
2023-05-16T21:53:05.850Z,18.40
2023-05-16T21:55:33.727Z,18.41
2023-05-16T21:58:02.321Z,18.55
2023-05-16T22:00:30.271Z,18.57
2023-05-16T22:02:58.671Z,18.63
2023-05-16T22:05:26.875Z,18.56
2023-05-16T22:07:55.358Z,18.63
2023-05-16T22:10:23.437Z,18.56
2023-05-16T22:12:51.688Z,18.43
2023-05-16T22:15:19.591Z,18.55
2023-05-16T22:17:48.480Z,18.47
2023-05-16T22:20:16.578Z,18.49
2023-05-16T22:22:45.113Z,18.49
2023-05-16T22:25:13.128Z,18.58
2023-05-16T22:27:41.678Z,18.69
2023-05-16T22:30:09.970Z,18.59
2023-05-16T22:32:38.339Z,18.82
2023-05-16T22:35:06.749Z,18.61
2023-05-16T22:37:35.002Z,18.61
2023-05-16T22:40:02.998Z,18.59
2023-05-16T22:42:31.738Z,18.80
2023-05-16T22:44:59.841Z,19.04
2023-05-16T22:47:29.047Z,18.91
2023-05-16T22:49:57.268Z,18.87
2023-05-16T22:52:25.682Z,18.67
2023-05-16T22:54:53.576Z,18.88
2023-05-16T22:57:21.957Z,18.88
2023-05-16T22:59:50.126Z,18.84
2023-05-16T23:02:18.529Z,18.92
2023-05-16T23:04:46.512Z,18.70
2023-05-16T23:07:14.876Z,18.45
2023-05-16T23:09:42.878Z,18.47
2023-05-16T23:12:11.324Z,18.63
2023-05-16T23:14:39.338Z,18.71
2023-05-16T23:17:07.615Z,18.44
2023-05-16T23:19:35.719Z,18.59
2023-05-16T23:22:06.265Z,18.56
2023-05-16T23:24:34.275Z,18.72
2023-05-16T23:27:02.817Z,18.82
2023-05-16T23:29:30.764Z,18.69
2023-05-16T23:31:59.088Z,18.79
2023-05-16T23:34:27.117Z,18.69
2023-05-16T23:36:55.398Z,18.75
2023-05-16T23:39:23.437Z,18.77
2023-05-16T23:41:51.676Z,18.74
2023-05-16T23:44:19.619Z,18.72
2023-05-16T23:46:48.014Z,18.62
2023-05-16T23:49:16.030Z,18.64
2023-05-16T23:51:56.738Z,18.54
2023-05-16T23:54:26.732Z,18.58
2023-05-16T23:56:55.454Z,18.58
2023-05-16T23:59:23.497Z,18.42
